sensor_id;sensor_type;location;lat;lon;timestamp;temperature;humidity
13711;DHT22;6927;51.256;9.410;2023-04-03T00:01:12;3.60;99.90
13711;DHT22;6927;51.256;9.410;2023-04-03T00:03:37;3.50;99.90
13711;DHT22;6927;51.256;9.410;2023-04-03T00:06:03;3.50;99.90
13711;DHT22;6927;51.256;9.410;2023-04-03T00:08:30;3.40;99.90
13711;DHT22;6927;51.256;9.410;2023-04-03T00:10:58;3.40;99.90
13711;DHT22;6927;51.256;9.410;2023-04-03T00:13:23;3.30;99.90
13711;DHT22;6927;51.256;9.410;2023-04-03T00:15:49;3.20;99.90
13711;DHT22;6927;51.256;9.410;2023-04-03T00:18:15;3.20;99.90
13711;DHT22;6927;51.256;9.410;2023-04-03T00:20:40;3.10;99.90
13711;DHT22;6927;51.256;9.410;2023-04-03T00:23:06;3.10;99.90
13711;DHT22;6927;51.256;9.410;2023-04-03T00:25:32;3.00;99.90
13711;DHT22;6927;51.256;9.410;2023-04-03T00:27:58;2.90;99.90
13711;DHT22;6927;51.256;9.410;2023-04-03T00:30:24;2.90;99.90
13711;DHT22;6927;51.256;9.410;2023-04-03T00:32:50;2.80;99.90
13711;DHT22;6927;51.256;9.410;2023-04-03T00:35:17;2.70;99.90
13711;DHT22;6927;51.256;9.410;2023-04-03T00:37:44;2.70;99.90
13711;DHT22;6927;51.256;9.410;2023-04-03T00:40:10;2.60;99.90
13711;DHT22;6927;51.256;9.410;2023-04-03T00:42:37;2.60;99.90
13711;DHT22;6927;51.256;9.410;2023-04-03T00:47:29;2.50;99.90
13711;DHT22;6927;51.256;9.410;2023-04-03T00:49:56;2.40;99.90
13711;DHT22;6927;51.256;9.410;2023-04-03T00:52:27;2.40;99.90
13711;DHT22;6927;51.256;9.410;2023-04-03T00:54:54;2.30;99.90
13711;DHT22;6927;51.256;9.410;2023-04-03T00:57:22;2.30;99.90
13711;DHT22;6927;51.256;9.410;2023-04-03T00:59:57;2.20;99.90
13711;DHT22;6927;51.256;9.410;2023-04-03T01:02:25;2.20;99.90
13711;DHT22;6927;51.256;9.410;2023-04-03T01:04:51;2.10;99.90
13711;DHT22;6927;51.256;9.410;2023-04-03T01:07:23;2.00;1.00
13711;DHT22;6927;51.256;9.410;2023-04-03T01:09:53;2.00;1.00
13711;DHT22;6927;51.256;9.410;2023-04-03T01:12:31;1.90;91.30
13711;DHT22;6927;51.256;9.410;2023-04-03T01:15:00;1.90;99.90
13711;DHT22;6927;51.256;9.410;2023-04-03T01:17:42;1.90;99.90
13711;DHT22;6927;51.256;9.410;2023-04-03T01:28:09;1.70;1.00
13711;DHT22;6927;51.256;9.410;2023-04-03T01:30:50;1.70;1.00
13711;DHT22;6927;51.256;9.410;2023-04-03T01:33:16;1.60;1.00
13711;DHT22;6927;51.256;9.410;2023-04-03T01:35:42;1.60;1.00
13711;DHT22;6927;51.256;9.410;2023-04-03T01:38:07;1.50;1.00
13711;DHT22;6927;51.256;9.410;2023-04-03T01:40:33;1.50;1.00
13711;DHT22;6927;51.256;9.410;2023-04-03T01:42:58;1.50;1.00
13711;DHT22;6927;51.256;9.410;2023-04-03T01:45:24;1.50;1.00
13711;DHT22;6927;51.256;9.410;2023-04-03T01:47:49;1.40;1.00
13711;DHT22;6927;51.256;9.410;2023-04-03T01:50:15;1.40;1.00
13711;DHT22;6927;51.256;9.410;2023-04-03T01:52:40;1.40;1.00
13711;DHT22;6927;51.256;9.410;2023-04-03T01:55:06;1.30;1.00
13711;DHT22;6927;51.256;9.410;2023-04-03T01:57:32;1.30;99.90
13711;DHT22;6927;51.256;9.410;2023-04-03T01:59:58;1.30;99.90
13711;DHT22;6927;51.256;9.410;2023-04-03T02:02:23;1.20;99.90
13711;DHT22;6927;51.256;9.410;2023-04-03T02:04:49;1.20;22.30
13711;DHT22;6927;51.256;9.410;2023-04-03T02:07:14;1.20;99.90
13711;DHT22;6927;51.256;9.410;2023-04-03T02:09:40;1.20;99.90
13711;DHT22;6927;51.256;9.410;2023-04-03T02:12:06;1.20;99.90
13711;DHT22;6927;51.256;9.410;2023-04-03T02:14:31;1.10;99.90
13711;DHT22;6927;51.256;9.410;2023-04-03T02:16:57;1.10;99.90
13711;DHT22;6927;51.256;9.410;2023-04-03T02:19:23;1.10;99.90
13711;DHT22;6927;51.256;9.410;2023-04-03T02:21:49;1.10;1.00
13711;DHT22;6927;51.256;9.410;2023-04-03T02:24:14;1.00;99.90
13711;DHT22;6927;51.256;9.410;2023-04-03T02:26:40;1.00;1.00
13711;DHT22;6927;51.256;9.410;2023-04-03T02:29:05;1.00;99.90
13711;DHT22;6927;51.256;9.410;2023-04-03T02:31:31;0.90;1.00
13711;DHT22;6927;51.256;9.410;2023-04-03T02:33:56;0.90;1.00
13711;DHT22;6927;51.256;9.410;2023-04-03T02:36:22;0.80;1.00
13711;DHT22;6927;51.256;9.410;2023-04-03T02:38:47;0.80;1.00
13711;DHT22;6927;51.256;9.410;2023-04-03T02:41:13;0.70;99.90
13711;DHT22;6927;51.256;9.410;2023-04-03T02:43:39;0.70;99.90
13711;DHT22;6927;51.256;9.410;2023-04-03T02:46:05;0.70;99.90
13711;DHT22;6927;51.256;9.410;2023-04-03T02:48:31;0.70;99.90
13711;DHT22;6927;51.256;9.410;2023-04-03T02:50:57;0.70;99.90
13711;DHT22;6927;51.256;9.410;2023-04-03T02:53:23;0.70;1.00
13711;DHT22;6927;51.256;9.410;2023-04-03T02:55:49;0.70;1.00
13711;DHT22;6927;51.256;9.410;2023-04-03T02:58:15;0.70;1.00
13711;DHT22;6927;51.256;9.410;2023-04-03T03:00:40;0.70;99.90
13711;DHT22;6927;51.256;9.410;2023-04-03T03:03:06;0.60;1.00
13711;DHT22;6927;51.256;9.410;2023-04-03T03:05:32;0.60;1.00
13711;DHT22;6927;51.256;9.410;2023-04-03T03:07:57;0.60;99.90
13711;DHT22;6927;51.256;9.410;2023-04-03T03:10:23;0.60;99.90
13711;DHT22;6927;51.256;9.410;2023-04-03T03:12:49;0.60;1.00
13711;DHT22;6927;51.256;9.410;2023-04-03T03:15:15;0.50;99.90
13711;DHT22;6927;51.256;9.410;2023-04-03T03:17:42;0.60;99.90
13711;DHT22;6927;51.256;9.410;2023-04-03T03:20:08;0.50;99.90
13711;DHT22;6927;51.256;9.410;2023-04-03T03:22:34;0.50;99.90
13711;DHT22;6927;51.256;9.410;2023-04-03T03:25:00;0.50;1.00
13711;DHT22;6927;51.256;9.410;2023-04-03T03:27:26;0.50;1.00
13711;DHT22;6927;51.256;9.410;2023-04-03T03:29:52;0.40;99.90
13711;DHT22;6927;51.256;9.410;2023-04-03T03:32:17;0.40;99.90
13711;DHT22;6927;51.256;9.410;2023-04-03T03:34:43;0.40;99.90
13711;DHT22;6927;51.256;9.410;2023-04-03T03:37:09;0.30;99.90
13711;DHT22;6927;51.256;9.410;2023-04-03T03:39:34;0.30;1.00
13711;DHT22;6927;51.256;9.410;2023-04-03T03:42:00;0.30;75.50
13711;DHT22;6927;51.256;9.410;2023-04-03T03:44:25;0.20;99.90
13711;DHT22;6927;51.256;9.410;2023-04-03T03:46:51;0.20;99.90
13711;DHT22;6927;51.256;9.410;2023-04-03T03:49:17;0.20;99.90
13711;DHT22;6927;51.256;9.410;2023-04-03T03:51:42;0.10;99.90
13711;DHT22;6927;51.256;9.410;2023-04-03T03:54:09;0.20;1.00
13711;DHT22;6927;51.256;9.410;2023-04-03T03:56:35;0.10;10.70
13711;DHT22;6927;51.256;9.410;2023-04-03T03:59:00;0.10;1.00
13711;DHT22;6927;51.256;9.410;2023-04-03T04:01:26;0.10;99.90
13711;DHT22;6927;51.256;9.410;2023-04-03T04:03:51;0.10;1.00
13711;DHT22;6927;51.256;9.410;2023-04-03T04:06:19;0.00;1.00
13711;DHT22;6927;51.256;9.410;2023-04-03T04:08:45;0.00;1.00
13711;DHT22;6927;51.256;9.410;2023-04-03T04:11:10;0.00;1.00
13711;DHT22;6927;51.256;9.410;2023-04-03T04:13:36;0.00;1.00
13711;DHT22;6927;51.256;9.410;2023-04-03T04:16:01;0.00;1.00
13711;DHT22;6927;51.256;9.410;2023-04-03T04:18:27;0.00;1.00
13711;DHT22;6927;51.256;9.410;2023-04-03T04:20:53;0.00;1.00
13711;DHT22;6927;51.256;9.410;2023-04-03T04:23:19;-0.10;57.30
13711;DHT22;6927;51.256;9.410;2023-04-03T04:25:45;-0.10;99.90
13711;DHT22;6927;51.256;9.410;2023-04-03T04:28:11;-0.10;99.90
13711;DHT22;6927;51.256;9.410;2023-04-03T04:30:37;-0.10;1.00
13711;DHT22;6927;51.256;9.410;2023-04-03T04:33:02;-0.10;1.00
13711;DHT22;6927;51.256;9.410;2023-04-03T04:35:28;-0.20;99.90
13711;DHT22;6927;51.256;9.410;2023-04-03T04:37:54;-0.20;99.90
13711;DHT22;6927;51.256;9.410;2023-04-03T04:40:19;-0.20;98.90
13711;DHT22;6927;51.256;9.410;2023-04-03T04:42:45;-0.20;99.90
13711;DHT22;6927;51.256;9.410;2023-04-03T04:45:11;-0.20;99.90
13711;DHT22;6927;51.256;9.410;2023-04-03T04:47:36;-0.20;99.90
13711;DHT22;6927;51.256;9.410;2023-04-03T04:50:02;-0.20;1.00
13711;DHT22;6927;51.256;9.410;2023-04-03T04:52:27;-0.20;99.90
13711;DHT22;6927;51.256;9.410;2023-04-03T04:54:53;-0.20;99.90
13711;DHT22;6927;51.256;9.410;2023-04-03T04:57:18;-0.30;1.00
13711;DHT22;6927;51.256;9.410;2023-04-03T04:59:44;-0.30;99.90
13711;DHT22;6927;51.256;9.410;2023-04-03T05:02:10;-0.30;99.90
13711;DHT22;6927;51.256;9.410;2023-04-03T05:04:35;-0.30;52.10
13711;DHT22;6927;51.256;9.410;2023-04-03T05:07:01;-0.40;99.90
13711;DHT22;6927;51.256;9.410;2023-04-03T05:09:26;-0.40;1.00
13711;DHT22;6927;51.256;9.410;2023-04-03T05:11:52;-0.40;99.90
13711;DHT22;6927;51.256;9.410;2023-04-03T05:14:17;-0.40;1.00
13711;DHT22;6927;51.256;9.410;2023-04-03T05:16:43;-0.40;99.90
13711;DHT22;6927;51.256;9.410;2023-04-03T05:19:11;-0.40;1.00
13711;DHT22;6927;51.256;9.410;2023-04-03T05:21:37;-0.40;1.00
13711;DHT22;6927;51.256;9.410;2023-04-03T05:24:02;-0.40;99.90
13711;DHT22;6927;51.256;9.410;2023-04-03T05:26:31;-0.40;99.90
13711;DHT22;6927;51.256;9.410;2023-04-03T05:28:57;-0.30;1.00
13711;DHT22;6927;51.256;9.410;2023-04-03T05:31:23;-0.30;1.00
13711;DHT22;6927;51.256;9.410;2023-04-03T05:33:49;-0.30;99.90
13711;DHT22;6927;51.256;9.410;2023-04-03T05:36:14;-0.20;99.90
13711;DHT22;6927;51.256;9.410;2023-04-03T05:38:40;-0.10;99.90
13711;DHT22;6927;51.256;9.410;2023-04-03T05:41:06;-0.10;1.00
13711;DHT22;6927;51.256;9.410;2023-04-03T05:43:31;-0.10;1.00
13711;DHT22;6927;51.256;9.410;2023-04-03T05:45:58;0.00;99.90
13711;DHT22;6927;51.256;9.410;2023-04-03T05:48:23;0.00;1.00
13711;DHT22;6927;51.256;9.410;2023-04-03T05:50:49;0.00;1.00
13711;DHT22;6927;51.256;9.410;2023-04-03T05:53:27;0.00;1.00
13711;DHT22;6927;51.256;9.410;2023-04-03T05:55:53;0.00;1.00
13711;DHT22;6927;51.256;9.410;2023-04-03T05:58:19;0.10;1.00
13711;DHT22;6927;51.256;9.410;2023-04-03T06:00:45;0.20;1.00
13711;DHT22;6927;51.256;9.410;2023-04-03T06:03:10;0.30;99.90
13711;DHT22;6927;51.256;9.410;2023-04-03T06:05:36;0.40;99.90
13711;DHT22;6927;51.256;9.410;2023-04-03T06:08:02;0.50;99.90
13711;DHT22;6927;51.256;9.410;2023-04-03T06:10:28;0.70;99.90
13711;DHT22;6927;51.256;9.410;2023-04-03T06:12:54;0.90;43.30
13711;DHT22;6927;51.256;9.410;2023-04-03T06:15:20;1.00;1.00
13711;DHT22;6927;51.256;9.410;2023-04-03T06:17:46;1.20;1.00
13711;DHT22;6927;51.256;9.410;2023-04-03T06:20:12;1.20;1.00
13711;DHT22;6927;51.256;9.410;2023-04-03T06:22:37;1.40;1.00
13711;DHT22;6927;51.256;9.410;2023-04-03T06:25:03;1.60;99.90
13711;DHT22;6927;51.256;9.410;2023-04-03T06:27:30;1.80;99.90
13711;DHT22;6927;51.256;9.410;2023-04-03T06:29:55;2.20;99.90
13711;DHT22;6927;51.256;9.410;2023-04-03T06:32:21;2.70;99.90
13711;DHT22;6927;51.256;9.410;2023-04-03T06:34:47;3.00;99.90
13711;DHT22;6927;51.256;9.410;2023-04-03T06:37:16;3.60;99.90
13711;DHT22;6927;51.256;9.410;2023-04-03T06:39:42;4.30;99.90
13711;DHT22;6927;51.256;9.410;2023-04-03T06:42:08;4.90;99.90
13711;DHT22;6927;51.256;9.410;2023-04-03T06:44:34;5.30;1.00
13711;DHT22;6927;51.256;9.410;2023-04-03T06:47:00;5.50;1.00
13711;DHT22;6927;51.256;9.410;2023-04-03T06:49:25;5.30;1.00
13711;DHT22;6927;51.256;9.410;2023-04-03T06:51:51;5.10;1.00
13711;DHT22;6927;51.256;9.410;2023-04-03T06:54:17;5.10;99.90
13711;DHT22;6927;51.256;9.410;2023-04-03T06:56:43;5.10;1.00
13711;DHT22;6927;51.256;9.410;2023-04-03T06:59:10;5.10;1.00
13711;DHT22;6927;51.256;9.410;2023-04-03T07:01:36;4.50;1.00
13711;DHT22;6927;51.256;9.410;2023-04-03T07:04:01;3.80;1.00
13711;DHT22;6927;51.256;9.410;2023-04-03T07:06:27;3.20;1.00
13711;DHT22;6927;51.256;9.410;2023-04-03T07:08:53;3.00;99.90
13711;DHT22;6927;51.256;9.410;2023-04-03T07:11:19;2.90;99.90
13711;DHT22;6927;51.256;9.410;2023-04-03T07:13:45;2.70;99.90
13711;DHT22;6927;51.256;9.410;2023-04-03T07:16:11;2.90;99.90
13711;DHT22;6927;51.256;9.410;2023-04-03T07:18:37;3.50;99.90
13711;DHT22;6927;51.256;9.410;2023-04-03T07:21:03;3.60;99.90
13711;DHT22;6927;51.256;9.410;2023-04-03T07:23:29;3.40;99.90
13711;DHT22;6927;51.256;9.410;2023-04-03T07:25:55;3.80;99.90
13711;DHT22;6927;51.256;9.410;2023-04-03T07:28:21;4.00;1.00
13711;DHT22;6927;51.256;9.410;2023-04-03T07:30:50;4.30;1.00
13711;DHT22;6927;51.256;9.410;2023-04-03T07:33:18;4.80;1.00
13711;DHT22;6927;51.256;9.410;2023-04-03T07:35:44;4.90;1.00
13711;DHT22;6927;51.256;9.410;2023-04-03T07:38:11;5.00;1.00
13711;DHT22;6927;51.256;9.410;2023-04-03T07:40:37;4.70;1.00
13711;DHT22;6927;51.256;9.410;2023-04-03T07:43:04;4.20;1.00
13711;DHT22;6927;51.256;9.410;2023-04-03T07:45:34;4.40;99.90
13711;DHT22;6927;51.256;9.410;2023-04-03T07:48:08;5.20;99.90
13711;DHT22;6927;51.256;9.410;2023-04-03T07:50:34;5.20;99.90
13711;DHT22;6927;51.256;9.410;2023-04-03T07:53:03;6.00;99.90
13711;DHT22;6927;51.256;9.410;2023-04-03T07:55:29;6.50;99.90
13711;DHT22;6927;51.256;9.410;2023-04-03T07:57:55;6.20;99.90
13711;DHT22;6927;51.256;9.410;2023-04-03T08:00:21;6.70;99.90
13711;DHT22;6927;51.256;9.410;2023-04-03T08:02:46;7.30;99.90
13711;DHT22;6927;51.256;9.410;2023-04-03T08:05:19;7.40;99.90
13711;DHT22;6927;51.256;9.410;2023-04-03T08:07:45;6.90;99.90
13711;DHT22;6927;51.256;9.410;2023-04-03T08:10:11;6.80;99.90
13711;DHT22;6927;51.256;9.410;2023-04-03T08:12:37;7.00;99.90
13711;DHT22;6927;51.256;9.410;2023-04-03T08:15:04;7.30;99.90
13711;DHT22;6927;51.256;9.410;2023-04-03T08:17:30;8.40;99.90
13711;DHT22;6927;51.256;9.410;2023-04-03T08:20:06;8.50;99.90
13711;DHT22;6927;51.256;9.410;2023-04-03T08:22:39;7.70;99.90
13711;DHT22;6927;51.256;9.410;2023-04-03T08:25:05;8.30;99.90
13711;DHT22;6927;51.256;9.410;2023-04-03T08:27:31;8.00;99.90
13711;DHT22;6927;51.256;9.410;2023-04-03T08:29:57;8.00;99.90
13711;DHT22;6927;51.256;9.410;2023-04-03T08:32:23;8.60;99.90
13711;DHT22;6927;51.256;9.410;2023-04-03T08:34:48;8.50;99.90
13711;DHT22;6927;51.256;9.410;2023-04-03T08:37:14;8.80;99.90
13711;DHT22;6927;51.256;9.410;2023-04-03T08:39:41;8.60;99.90
13711;DHT22;6927;51.256;9.410;2023-04-03T08:45:00;8.70;99.90
13711;DHT22;6927;51.256;9.410;2023-04-03T08:47:38;9.60;99.90
13711;DHT22;6927;51.256;9.410;2023-04-03T08:50:07;10.40;99.90
13711;DHT22;6927;51.256;9.410;2023-04-03T08:52:40;10.80;99.90
13711;DHT22;6927;51.256;9.410;2023-04-03T08:55:23;10.50;99.90
13711;DHT22;6927;51.256;9.410;2023-04-03T08:58:01;9.60;99.90
13711;DHT22;6927;51.256;9.410;2023-04-03T09:01:14;9.60;99.90
13711;DHT22;6927;51.256;9.410;2023-04-03T09:03:16;9.20;99.90
13711;DHT22;6927;51.256;9.410;2023-04-03T09:08:24;8.20;99.90
13711;DHT22;6927;51.256;9.410;2023-04-03T09:11:06;8.60;99.90
13711;DHT22;6927;51.256;9.410;2023-04-03T09:13:54;9.20;99.90
13711;DHT22;6927;51.256;9.410;2023-04-03T09:19:22;10.20;99.90
13711;DHT22;6927;51.256;9.410;2023-04-03T09:21:49;10.10;99.90
13711;DHT22;6927;51.256;9.410;2023-04-03T09:24:16;10.40;99.90
13711;DHT22;6927;51.256;9.410;2023-04-03T09:27:04;10.90;99.90
13711;DHT22;6927;51.256;9.410;2023-04-03T09:29:32;11.10;99.90
13711;DHT22;6927;51.256;9.410;2023-04-03T09:32:02;10.20;99.90
13711;DHT22;6927;51.256;9.410;2023-04-03T09:34:35;10.30;99.90
13711;DHT22;6927;51.256;9.410;2023-04-03T09:37:03;10.10;99.90
13711;DHT22;6927;51.256;9.410;2023-04-03T09:39:33;9.30;99.90
13711;DHT22;6927;51.256;9.410;2023-04-03T09:42:23;7.90;99.90
13711;DHT22;6927;51.256;9.410;2023-04-03T09:45:04;7.00;99.90
13711;DHT22;6927;51.256;9.410;2023-04-03T09:47:33;7.20;99.90
13711;DHT22;6927;51.256;9.410;2023-04-03T09:52:46;8.00;99.90
13711;DHT22;6927;51.256;9.410;2023-04-03T09:55:17;7.80;99.90
13711;DHT22;6927;51.256;9.410;2023-04-03T09:57:47;8.00;99.90
13711;DHT22;6927;51.256;9.410;2023-04-03T10:00:30;9.00;99.90
13711;DHT22;6927;51.256;9.410;2023-04-03T10:02:58;10.20;99.90
13711;DHT22;6927;51.256;9.410;2023-04-03T10:05:44;9.40;99.90
13711;DHT22;6927;51.256;9.410;2023-04-03T10:10:41;9.40;99.90
13711;DHT22;6927;51.256;9.410;2023-04-03T10:13:11;10.20;99.90
13711;DHT22;6927;51.256;9.410;2023-04-03T10:21:13;10.90;99.90
13711;DHT22;6927;51.256;9.410;2023-04-03T10:23:55;10.20;99.90
13711;DHT22;6927;51.256;9.410;2023-04-03T10:26:32;9.10;99.90
13711;DHT22;6927;51.256;9.410;2023-04-03T10:31:46;8.60;99.90
13711;DHT22;6927;51.256;9.410;2023-04-03T10:34:33;8.50;99.90
13711;DHT22;6927;51.256;9.410;2023-04-03T10:38:21;8.80;99.90
13711;DHT22;6927;51.256;9.410;2023-04-03T10:40:29;8.70;99.90
13711;DHT22;6927;51.256;9.410;2023-04-03T10:43:12;6.90;99.90
13711;DHT22;6927;51.256;9.410;2023-04-03T10:48:33;5.20;99.90
13711;DHT22;6927;51.256;9.410;2023-04-03T10:56:32;6.00;99.90
13711;DHT22;6927;51.256;9.410;2023-04-03T10:59:07;6.80;99.90
13711;DHT22;6927;51.256;9.410;2023-04-03T11:01:40;6.90;99.90
13711;DHT22;6927;51.256;9.410;2023-04-03T11:04:07;6.70;99.90
13711;DHT22;6927;51.256;9.410;2023-04-03T11:07:00;6.80;99.90
13711;DHT22;6927;51.256;9.410;2023-04-03T11:09:30;6.60;99.90
13711;DHT22;6927;51.256;9.410;2023-04-03T11:12:28;6.30;99.90
13711;DHT22;6927;51.256;9.410;2023-04-03T11:14:57;6.60;99.90
13711;DHT22;6927;51.256;9.410;2023-04-03T11:17:43;7.50;99.90
13711;DHT22;6927;51.256;9.410;2023-04-03T11:20:30;7.80;99.90
13711;DHT22;6927;51.256;9.410;2023-04-03T11:23:05;8.30;99.90
13711;DHT22;6927;51.256;9.410;2023-04-03T11:25:36;9.60;99.90
13711;DHT22;6927;51.256;9.410;2023-04-03T11:28:06;10.50;99.90
13711;DHT22;6927;51.256;9.410;2023-04-03T11:31:13;9.90;99.90
13711;DHT22;6927;51.256;9.410;2023-04-03T11:36:53;9.70;99.90
13711;DHT22;6927;51.256;9.410;2023-04-03T11:39:34;9.40;99.90
13711;DHT22;6927;51.256;9.410;2023-04-03T11:42:34;9.40;99.90
13711;DHT22;6927;51.256;9.410;2023-04-03T11:45:29;9.60;99.90
13711;DHT22;6927;51.256;9.410;2023-04-03T11:48:42;8.50;99.90
13711;DHT22;6927;51.256;9.410;2023-04-03T11:50:52;9.00;99.90
13711;DHT22;6927;51.256;9.410;2023-04-03T11:55:55;10.00;99.90
13711;DHT22;6927;51.256;9.410;2023-04-03T11:58:34;9.90;99.90
13711;DHT22;6927;51.256;9.410;2023-04-03T12:04:14;10.10;99.90
13711;DHT22;6927;51.256;9.410;2023-04-03T12:12:00;10.60;99.90
13711;DHT22;6927;51.256;9.410;2023-04-03T12:14:28;10.40;99.90
13711;DHT22;6927;51.256;9.410;2023-04-03T12:16:57;9.80;99.90
13711;DHT22;6927;51.256;9.410;2023-04-03T12:19:44;9.10;99.90
13711;DHT22;6927;51.256;9.410;2023-04-03T12:22:14;8.60;99.90
13711;DHT22;6927;51.256;9.410;2023-04-03T12:24:45;8.80;99.90
13711;DHT22;6927;51.256;9.410;2023-04-03T12:27:30;9.10;99.90
13711;DHT22;6927;51.256;9.410;2023-04-03T12:35:31;8.60;99.90
13711;DHT22;6927;51.256;9.410;2023-04-03T12:45:51;10.00;99.90
13711;DHT22;6927;51.256;9.410;2023-04-03T12:48:22;10.00;99.90
13711;DHT22;6927;51.256;9.410;2023-04-03T12:50:50;10.20;99.90
13711;DHT22;6927;51.256;9.410;2023-04-03T12:53:22;10.90;99.90
13711;DHT22;6927;51.256;9.410;2023-04-03T12:55:54;10.60;99.90
13711;DHT22;6927;51.256;9.410;2023-04-03T12:58:26;9.60;99.90
13711;DHT22;6927;51.256;9.410;2023-04-03T13:01:11;9.40;99.90
13711;DHT22;6927;51.256;9.410;2023-04-03T13:03:40;9.60;99.90
13711;DHT22;6927;51.256;9.410;2023-04-03T13:06:17;9.50;99.90
13711;DHT22;6927;51.256;9.410;2023-04-03T13:08:54;9.70;99.90
13711;DHT22;6927;51.256;9.410;2023-04-03T13:11:24;9.40;99.90
13711;DHT22;6927;51.256;9.410;2023-04-03T13:14:02;9.60;99.90
13711;DHT22;6927;51.256;9.410;2023-04-03T13:16:31;10.20;99.90
13711;DHT22;6927;51.256;9.410;2023-04-03T13:18:57;10.70;99.90
13711;DHT22;6927;51.256;9.410;2023-04-03T13:21:31;10.20;99.90
13711;DHT22;6927;51.256;9.410;2023-04-03T13:24:00;10.10;99.90
13711;DHT22;6927;51.256;9.410;2023-04-03T13:26:30;10.90;99.90
13711;DHT22;6927;51.256;9.410;2023-04-03T13:29:01;9.20;99.90
13711;DHT22;6927;51.256;9.410;2023-04-03T13:31:32;8.50;99.90
13711;DHT22;6927;51.256;9.410;2023-04-03T13:34:12;9.50;99.90
13711;DHT22;6927;51.256;9.410;2023-04-03T13:36:41;10.40;99.90
13711;DHT22;6927;51.256;9.410;2023-04-03T13:41:43;9.30;99.90
13711;DHT22;6927;51.256;9.410;2023-04-03T13:44:18;9.30;99.90
13711;DHT22;6927;51.256;9.410;2023-04-03T13:46:53;9.40;99.90
13711;DHT22;6927;51.256;9.410;2023-04-03T13:49:34;9.80;99.90
13711;DHT22;6927;51.256;9.410;2023-04-03T13:52:00;10.60;99.90
13711;DHT22;6927;51.256;9.410;2023-04-03T13:54:38;11.90;99.90
13711;DHT22;6927;51.256;9.410;2023-04-03T13:57:12;11.50;99.90
13711;DHT22;6927;51.256;9.410;2023-04-03T13:59:38;10.70;99.90
13711;DHT22;6927;51.256;9.410;2023-04-03T14:04:51;9.30;99.90
13711;DHT22;6927;51.256;9.410;2023-04-03T14:07:19;9.90;99.90
13711;DHT22;6927;51.256;9.410;2023-04-03T14:09:46;10.30;99.90
13711;DHT22;6927;51.256;9.410;2023-04-03T14:12:19;10.40;99.90
13711;DHT22;6927;51.256;9.410;2023-04-03T14:14:46;9.70;99.90
13711;DHT22;6927;51.256;9.410;2023-04-03T14:17:24;9.50;99.90
13711;DHT22;6927;51.256;9.410;2023-04-03T14:19:52;8.90;99.90
13711;DHT22;6927;51.256;9.410;2023-04-03T14:22:20;9.50;99.90
13711;DHT22;6927;51.256;9.410;2023-04-03T14:24:48;9.50;99.90
13711;DHT22;6927;51.256;9.410;2023-04-03T14:27:24;9.40;99.90
13711;DHT22;6927;51.256;9.410;2023-04-03T14:29:51;9.60;99.90
13711;DHT22;6927;51.256;9.410;2023-04-03T14:32:19;10.10;99.90
13711;DHT22;6927;51.256;9.410;2023-04-03T14:34:46;10.30;99.90
13711;DHT22;6927;51.256;9.410;2023-04-03T14:37:18;10.40;99.90
13711;DHT22;6927;51.256;9.410;2023-04-03T14:39:45;11.10;99.90
13711;DHT22;6927;51.256;9.410;2023-04-03T14:42:18;11.00;99.90
13711;DHT22;6927;51.256;9.410;2023-04-03T14:44:44;10.00;99.90
13711;DHT22;6927;51.256;9.410;2023-04-03T14:47:15;10.20;99.90
13711;DHT22;6927;51.256;9.410;2023-04-03T14:49:42;10.80;99.90
13711;DHT22;6927;51.256;9.410;2023-04-03T14:52:20;11.90;99.90
13711;DHT22;6927;51.256;9.410;2023-04-03T14:54:48;11.80;99.90
13711;DHT22;6927;51.256;9.410;2023-04-03T14:57:15;11.80;99.90
13711;DHT22;6927;51.256;9.410;2023-04-03T14:59:42;10.30;99.90
13711;DHT22;6927;51.256;9.410;2023-04-03T15:02:37;9.10;99.90
13711;DHT22;6927;51.256;9.410;2023-04-03T15:05:05;8.20;99.90
13711;DHT22;6927;51.256;9.410;2023-04-03T15:07:37;9.10;99.90
13711;DHT22;6927;51.256;9.410;2023-04-03T15:12:39;11.30;99.90
13711;DHT22;6927;51.256;9.410;2023-04-03T15:15:05;10.70;99.90
13711;DHT22;6927;51.256;9.410;2023-04-03T15:17:31;10.50;99.90
13711;DHT22;6927;51.256;9.410;2023-04-03T15:19:58;9.40;99.90
13711;DHT22;6927;51.256;9.410;2023-04-03T15:22:24;9.10;99.90
13711;DHT22;6927;51.256;9.410;2023-04-03T15:24:49;8.70;99.90
13711;DHT22;6927;51.256;9.410;2023-04-03T15:27:15;9.00;99.90
13711;DHT22;6927;51.256;9.410;2023-04-03T15:29:42;9.10;99.90
13711;DHT22;6927;51.256;9.410;2023-04-03T15:32:08;8.60;99.90
13711;DHT22;6927;51.256;9.410;2023-04-03T15:34:35;8.30;99.90
13711;DHT22;6927;51.256;9.410;2023-04-03T15:37:00;8.50;99.90
13711;DHT22;6927;51.256;9.410;2023-04-03T15:39:26;9.10;99.90
13711;DHT22;6927;51.256;9.410;2023-04-03T15:41:51;8.90;99.90
13711;DHT22;6927;51.256;9.410;2023-04-03T15:44:17;9.40;99.90
13711;DHT22;6927;51.256;9.410;2023-04-03T15:46:44;10.20;99.90
13711;DHT22;6927;51.256;9.410;2023-04-03T15:49:11;10.70;99.90
13711;DHT22;6927;51.256;9.410;2023-04-03T15:51:37;10.50;99.90
13711;DHT22;6927;51.256;9.410;2023-04-03T15:54:02;12.10;99.90
13711;DHT22;6927;51.256;9.410;2023-04-03T15:56:28;11.50;99.90
13711;DHT22;6927;51.256;9.410;2023-04-03T15:58:53;10.60;99.90
13711;DHT22;6927;51.256;9.410;2023-04-03T16:01:19;8.60;99.90
13711;DHT22;6927;51.256;9.410;2023-04-03T16:03:45;7.50;99.90
13711;DHT22;6927;51.256;9.410;2023-04-03T16:06:15;7.20;99.90
13711;DHT22;6927;51.256;9.410;2023-04-03T16:08:42;7.00;99.90
13711;DHT22;6927;51.256;9.410;2023-04-03T16:11:07;7.40;99.90
13711;DHT22;6927;51.256;9.410;2023-04-03T16:13:33;8.60;99.90
13711;DHT22;6927;51.256;9.410;2023-04-03T16:16:00;9.80;99.90
13711;DHT22;6927;51.256;9.410;2023-04-03T16:18:27;10.40;99.90
13711;DHT22;6927;51.256;9.410;2023-04-03T16:20:53;10.30;99.90
13711;DHT22;6927;51.256;9.410;2023-04-03T16:23:19;10.00;99.90
13711;DHT22;6927;51.256;9.410;2023-04-03T16:25:45;10.50;99.90
13711;DHT22;6927;51.256;9.410;2023-04-03T16:28:12;10.50;99.90
13711;DHT22;6927;51.256;9.410;2023-04-03T16:30:40;8.40;99.90
13711;DHT22;6927;51.256;9.410;2023-04-03T16:33:07;7.40;99.90
13711;DHT22;6927;51.256;9.410;2023-04-03T16:35:33;7.10;99.90
13711;DHT22;6927;51.256;9.410;2023-04-03T16:37:59;6.60;99.90
13711;DHT22;6927;51.256;9.410;2023-04-03T16:40:25;6.20;99.90
13711;DHT22;6927;51.256;9.410;2023-04-03T16:42:50;6.40;99.90
13711;DHT22;6927;51.256;9.410;2023-04-03T16:45:16;6.70;99.90
13711;DHT22;6927;51.256;9.410;2023-04-03T16:47:42;6.60;99.90
13711;DHT22;6927;51.256;9.410;2023-04-03T16:50:08;6.60;99.90
13711;DHT22;6927;51.256;9.410;2023-04-03T16:52:40;7.30;99.90
13711;DHT22;6927;51.256;9.410;2023-04-03T16:55:06;8.20;99.90
13711;DHT22;6927;51.256;9.410;2023-04-03T16:57:32;8.40;99.90
13711;DHT22;6927;51.256;9.410;2023-04-03T16:59:58;7.40;99.90
13711;DHT22;6927;51.256;9.410;2023-04-03T17:02:24;6.60;99.90
13711;DHT22;6927;51.256;9.410;2023-04-03T17:04:53;6.20;99.90
13711;DHT22;6927;51.256;9.410;2023-04-03T17:07:20;5.90;99.90
13711;DHT22;6927;51.256;9.410;2023-04-03T17:09:46;5.70;99.90
13711;DHT22;6927;51.256;9.410;2023-04-03T17:12:12;5.50;99.90
13711;DHT22;6927;51.256;9.410;2023-04-03T17:14:38;5.40;99.90
13711;DHT22;6927;51.256;9.410;2023-04-03T17:17:03;5.40;99.90
13711;DHT22;6927;51.256;9.410;2023-04-03T17:19:29;5.20;99.90
13711;DHT22;6927;51.256;9.410;2023-04-03T17:21:56;5.10;99.90
13711;DHT22;6927;51.256;9.410;2023-04-03T17:24:21;5.20;99.90
13711;DHT22;6927;51.256;9.410;2023-04-03T17:26:47;5.20;99.90